LICC

Catania-Fontanarossa Airport

Airport
ICAO code
LICC
IATA Code
CTA
Summary
ICAO Region
EUR
ICAO Territory
Location

Catania, Sicilia

Serving
Catania
Elevation
39 ft
Coordinates
37° 28' 0" N , 15° 3' 59" E
Airport WX
Volcanic Ash
Metar
LICC 190520Z 25010KT 9999 FEW090 12/05 Q1009

Runways

Designator Length Width Surface Rops
8/26 2435 45 ASP Yes/Yes

Airport map

Aerial View

SKYbrary Partners:

Safety knowledge contributed by: